createdAt,value
2023-03-26T00:00:18.097Z,89.20
2023-03-26T00:03:22.325Z,88.80
2023-03-26T00:06:27.335Z,89.00
2023-03-26T00:09:30.399Z,89.00
2023-03-26T00:12:34.486Z,89.30
2023-03-26T00:15:38.207Z,89.30
2023-03-26T00:18:42.485Z,89.50
2023-03-26T00:21:45.281Z,89.40
2023-03-26T00:24:50.738Z,89.50
2023-03-26T00:27:54.933Z,90.00
2023-03-26T00:31:02.672Z,90.00
2023-03-26T00:34:05.779Z,90.20
2023-03-26T00:37:08.833Z,90.30
2023-03-26T00:40:12.671Z,90.10
2023-03-26T00:43:19.636Z,90.40
2023-03-26T00:46:22.732Z,90.50
2023-03-26T00:49:26.659Z,90.30
2023-03-26T00:52:29.700Z,90.20
2023-03-26T00:55:32.451Z,90.10
2023-03-26T00:58:37.126Z,90.10
2023-03-26T01:01:40.258Z,90.20
2023-03-26T01:04:47.151Z,90.20
2023-03-26T01:07:50.280Z,90.60
2023-03-26T01:11:02.716Z,90.20
2023-03-26T01:14:10.919Z,90.10
2023-03-26T01:17:14.094Z,90.20
2023-03-26T01:20:26.571Z,90.30
2023-03-26T01:23:38.183Z,90.20
2023-03-26T01:27:10.635Z,90.20
2023-03-26T01:30:20.137Z,90.30
2023-03-26T01:33:33.843Z,90.10
2023-03-26T01:36:44.620Z,90.20
2023-03-26T01:39:52.798Z,90.00
2023-03-26T01:43:02.540Z,90.30
2023-03-26T01:46:08.909Z,90.30
2023-03-26T01:49:13.908Z,90.30
2023-03-26T01:52:20.739Z,90.50
2023-03-26T01:55:26.953Z,90.40
2023-03-26T01:58:38.098Z,90.40
2023-03-26T02:01:46.445Z,90.60
2023-03-26T02:04:55.608Z,90.80
2023-03-26T02:08:06.197Z,90.80
2023-03-26T02:11:13.151Z,90.50
2023-03-26T02:14:17.741Z,90.60
2023-03-26T02:17:24.176Z,90.20
2023-03-26T02:20:29.969Z,90.10
2023-03-26T02:23:35.659Z,90.30
2023-03-26T02:26:38.474Z,90.30
2023-03-26T02:29:42.568Z,90.30
2023-03-26T02:32:45.337Z,90.50
2023-03-26T02:35:48.174Z,90.60
2023-03-26T02:38:51.877Z,90.50
2023-03-26T02:41:54.618Z,90.40
2023-03-26T02:44:58.697Z,90.60
2023-03-26T02:48:01.849Z,90.40
2023-03-26T02:51:06.614Z,90.60
2023-03-26T02:54:09.786Z,90.50
2023-03-26T02:57:12.646Z,90.60
2023-03-26T03:00:17.548Z,90.70
2023-03-26T03:03:24.093Z,90.50
2023-03-26T03:06:30.865Z,90.50
2023-03-26T03:09:33.612Z,90.60
2023-03-26T03:12:36.805Z,90.80
2023-03-26T03:15:40.870Z,90.70
2023-03-26T03:18:43.676Z,90.70
2023-03-26T03:21:46.514Z,90.80
2023-03-26T03:24:49.243Z,90.70
2023-03-26T03:27:53.843Z,90.90
2023-03-26T03:30:59.049Z,91.00
2023-03-26T03:34:01.851Z,90.90
2023-03-26T03:37:04.588Z,90.90
2023-03-26T03:40:10.809Z,91.10
2023-03-26T03:43:13.557Z,91.00
2023-03-26T03:46:17.708Z,91.10
2023-03-26T03:49:20.535Z,91.30
2023-03-26T03:52:23.397Z,91.00
2023-03-26T03:55:27.614Z,91.00
2023-03-26T03:58:30.907Z,91.10
2023-03-26T04:01:34.981Z,91.20
2023-03-26T04:04:38.086Z,91.00
2023-03-26T04:07:40.902Z,91.10
2023-03-26T04:10:43.904Z,91.10
2023-03-26T04:13:46.646Z,91.20
2023-03-26T04:16:50.820Z,91.40
2023-03-26T04:19:54.802Z,91.60
2023-03-26T04:22:57.962Z,91.30
2023-03-26T04:26:04.985Z,91.20
2023-03-26T04:29:12.779Z,91.20
2023-03-26T04:32:24.609Z,91.50
2023-03-26T04:35:30.222Z,91.40
2023-03-26T04:38:43.340Z,91.40
2023-03-26T04:41:46.930Z,91.40
2023-03-26T04:44:50.786Z,91.90
2023-03-26T04:47:55.449Z,91.80
2023-03-26T04:50:58.565Z,92.10
2023-03-26T04:54:02.468Z,92.00
2023-03-26T04:57:09.990Z,91.90
2023-03-26T05:00:19.533Z,91.90
2023-03-26T05:03:23.693Z,91.90
2023-03-26T05:06:27.939Z,92.40
2023-03-26T05:09:30.750Z,92.40
2023-03-26T05:12:33.521Z,92.50
2023-03-26T05:15:36.320Z,92.50
2023-03-26T05:18:40.553Z,92.30
2023-03-26T05:21:43.317Z,92.30
2023-03-26T05:24:46.095Z,92.40
2023-03-26T05:27:49.152Z,92.70
2023-03-26T05:30:53.230Z,92.60
2023-03-26T05:33:57.847Z,92.50
2023-03-26T05:37:00.605Z,92.70
2023-03-26T05:40:04.018Z,92.70
2023-03-26T05:43:06.770Z,92.90
2023-03-26T05:46:09.599Z,92.90
2023-03-26T05:49:13.720Z,93.20
2023-03-26T05:52:18.942Z,93.10
2023-03-26T05:55:21.970Z,93.00
2023-03-26T05:58:25.339Z,92.80
2023-03-26T06:01:29.344Z,92.90
2023-03-26T06:04:33.549Z,93.10
2023-03-26T06:07:36.371Z,93.30
2023-03-26T06:10:39.604Z,93.40
2023-03-26T06:13:42.995Z,93.00
2023-03-26T06:16:45.755Z,92.80
2023-03-26T06:19:49.848Z,93.30
2023-03-26T06:22:52.594Z,92.70
2023-03-26T06:25:55.380Z,92.40
2023-03-26T06:28:58.121Z,92.60
2023-03-26T06:32:12.438Z,92.90
2023-03-26T06:35:22.942Z,92.10
2023-03-26T06:38:26.074Z,92.00
2023-03-26T06:41:29.752Z,92.00
2023-03-26T06:44:32.543Z,91.80
2023-03-26T06:47:35.305Z,92.00
2023-03-26T06:50:39.397Z,92.10
2023-03-26T06:53:42.153Z,92.40
2023-03-26T06:56:45.519Z,91.90
2023-03-26T06:59:48.258Z,91.90
2023-03-26T07:02:51.065Z,91.20
2023-03-26T07:05:55.281Z,91.60
2023-03-26T07:08:58.298Z,91.90
2023-03-26T07:12:01.184Z,91.10
2023-03-26T07:15:05.372Z,90.70
2023-03-26T07:18:08.496Z,91.10
2023-03-26T07:21:14.054Z,92.40
2023-03-26T07:24:17.749Z,92.30
2023-03-26T07:27:36.068Z,92.50
2023-03-26T07:30:47.934Z,93.20
2023-03-26T07:34:02.277Z,93.40
2023-03-26T07:37:13.746Z,93.90
2023-03-26T07:40:28.935Z,95.30
2023-03-26T07:43:48.046Z,95.50
2023-03-26T07:46:53.277Z,95.00
2023-03-26T07:49:57.829Z,96.20
2023-03-26T07:53:02.647Z,96.10
2023-03-26T07:56:14.238Z,96.50
2023-03-26T07:59:27.787Z,96.40
2023-03-26T08:02:46.362Z,96.90
2023-03-26T08:05:54.185Z,98.20
2023-03-26T08:09:06.858Z,98.30
2023-03-26T08:12:19.499Z,98.30
2023-03-26T08:15:30.667Z,98.30
2023-03-26T08:18:44.741Z,98.60
2023-03-26T08:21:52.068Z,98.90
2023-03-26T08:25:17.713Z,98.50
2023-03-26T08:28:37.746Z,98.80
2023-03-26T08:31:43.622Z,98.20
2023-03-26T08:34:46.998Z,98.80
2023-03-26T08:37:50.041Z,98.30
2023-03-26T08:41:28.790Z,97.60
2023-03-26T08:45:17.156Z,97.00
2023-03-26T08:49:04.069Z,97.80
2023-03-26T08:52:33.910Z,97.40
2023-03-26T08:55:44.587Z,97.20
2023-03-26T08:59:27.839Z,97.10
2023-03-26T09:02:59.104Z,97.40
2023-03-26T09:06:37.723Z,96.90
2023-03-26T09:10:20.777Z,97.30
2023-03-26T09:13:56.062Z,97.30
2023-03-26T09:17:27.683Z,97.10
2023-03-26T09:20:55.865Z,98.10
2023-03-26T09:24:19.557Z,98.70
2023-03-26T09:27:37.419Z,99.10
2023-03-26T09:31:07.849Z,99.00
2023-03-26T09:34:39.511Z,98.50
2023-03-26T09:37:58.391Z,98.00
2023-03-26T09:41:11.498Z,97.40
2023-03-26T09:44:33.103Z,98.10
2023-03-26T09:47:53.852Z,98.30
2023-03-26T09:51:30.485Z,98.30
2023-03-26T09:54:59.626Z,98.30
2023-03-26T09:58:21.144Z,98.40
2023-03-26T10:01:34.639Z,98.80
2023-03-26T10:05:28.826Z,98.70
2023-03-26T10:08:44.315Z,98.90
2023-03-26T10:11:59.749Z,99.30
2023-03-26T10:15:24.630Z,98.90
2023-03-26T10:18:37.939Z,99.30
2023-03-26T10:21:48.471Z,99.60
2023-03-26T10:25:21.818Z,99.70
2023-03-26T10:28:38.891Z,99.70
2023-03-26T10:31:47.198Z,99.20
2023-03-26T10:35:08.878Z,99.80
2023-03-26T10:38:19.231Z,99.30
2023-03-26T10:41:30.189Z,99.60
2023-03-26T10:44:49.267Z,99.90
2023-03-26T10:48:07.361Z,99.90
2023-03-26T10:51:36.573Z,99.60
2023-03-26T10:54:50.866Z,99.90
2023-03-26T10:57:56.861Z,99.90
2023-03-26T11:01:05.595Z,99.90
2023-03-26T11:04:21.551Z,99.90
2023-03-26T11:07:33.834Z,99.90
2023-03-26T11:10:45.838Z,99.90
2023-03-26T11:13:57.487Z,99.90
2023-03-26T11:17:39.164Z,99.90
2023-03-26T11:20:40.663Z,99.90
2023-03-26T11:24:05.251Z,99.90
2023-03-26T11:27:18.397Z,99.90
2023-03-26T11:30:33.420Z,99.90
2023-03-26T11:33:45.537Z,99.90
2023-03-26T11:36:54.961Z,99.90
2023-03-26T11:40:00.202Z,99.90
2023-03-26T11:43:05.238Z,99.90
2023-03-26T11:46:11.273Z,99.90
2023-03-26T11:49:18.606Z,99.90
2023-03-26T11:52:23.282Z,99.90
2023-03-26T11:55:27.490Z,99.90
2023-03-26T11:58:33.914Z,99.90
2023-03-26T12:01:50.296Z,99.90
2023-03-26T12:05:03.746Z,99.90
2023-03-26T12:08:20.045Z,99.90
2023-03-26T12:11:27.153Z,99.90
2023-03-26T12:14:33.299Z,99.90
2023-03-26T12:17:37.848Z,99.90
2023-03-26T12:20:42.520Z,99.90
2023-03-26T12:23:57.105Z,99.90
2023-03-26T12:27:02.978Z,99.50
2023-03-26T12:30:12.954Z,99.20
2023-03-26T12:33:26.128Z,99.50
2023-03-26T12:36:33.171Z,99.80
2023-03-26T12:40:09.141Z,99.40
2023-03-26T12:44:49.338Z,98.90
2023-03-26T12:47:57.722Z,99.10
2023-03-26T12:49:53.855Z,99.20
2023-03-26T12:53:05.341Z,99.10
2023-03-26T12:56:21.516Z,99.20
2023-03-26T12:59:38.620Z,99.20
2023-03-26T13:03:14.331Z,98.90
2023-03-26T13:06:27.427Z,98.50
2023-03-26T13:09:55.225Z,99.50
2023-03-26T13:13:12.188Z,99.10
2023-03-26T13:16:22.272Z,99.80
2023-03-26T13:19:30.951Z,99.10
2023-03-26T13:22:42.404Z,99.00
2023-03-26T13:25:52.359Z,98.90
2023-03-26T13:29:04.726Z,98.90
2023-03-26T13:32:12.310Z,99.10
2023-03-26T13:35:28.156Z,99.10
2023-03-26T13:38:40.965Z,99.20
2023-03-26T13:41:58.205Z,99.00
2023-03-26T13:45:10.672Z,98.80
2023-03-26T13:48:18.400Z,98.70
2023-03-26T13:51:27.106Z,98.70
2023-03-26T13:54:33.436Z,98.90
2023-03-26T13:57:42.490Z,98.90
2023-03-26T14:00:54.385Z,98.90
2023-03-26T14:04:02.419Z,98.10
2023-03-26T14:07:09.742Z,96.10
2023-03-26T14:10:18.317Z,94.70
2023-03-26T14:13:28.094Z,95.50
2023-03-26T14:16:37.748Z,96.00
2023-03-26T14:20:12.548Z,95.20
2023-03-26T14:23:52.227Z,94.90
2023-03-26T14:27:28.740Z,94.00
2023-03-26T14:30:56.391Z,93.40
2023-03-26T14:34:22.280Z,93.80
2023-03-26T14:37:43.846Z,94.00
2023-03-26T14:40:58.090Z,93.40
2023-03-26T14:44:48.884Z,93.00
2023-03-26T14:48:25.311Z,93.10
2023-03-26T14:51:45.623Z,92.90
2023-03-26T14:54:53.028Z,93.30
2023-03-26T14:58:27.864Z,93.20
2023-03-26T15:01:55.015Z,93.30
2023-03-26T15:05:51.969Z,93.40
2023-03-26T15:09:34.273Z,93.70
2023-03-26T15:12:55.325Z,93.80
2023-03-26T15:16:37.487Z,93.50
2023-03-26T15:19:57.339Z,94.20
2023-03-26T15:23:33.612Z,93.90
2023-03-26T15:27:25.358Z,94.10
2023-03-26T15:31:06.475Z,94.40
2023-03-26T15:35:02.377Z,94.50
2023-03-26T15:38:41.388Z,94.70
2023-03-26T15:41:51.033Z,95.10
2023-03-26T15:44:58.378Z,95.00
2023-03-26T15:48:25.813Z,95.00
2023-03-26T15:51:49.281Z,95.40
2023-03-26T15:54:59.436Z,95.90
2023-03-26T15:58:09.818Z,96.20
2023-03-26T16:01:21.280Z,92.10
2023-03-26T16:04:41.294Z,90.50
2023-03-26T16:08:04.350Z,90.40
2023-03-26T16:11:10.745Z,89.80
2023-03-26T16:14:23.149Z,89.50
2023-03-26T16:17:27.117Z,89.10
2023-03-26T16:20:34.960Z,90.40
2023-03-26T16:23:56.289Z,91.30
2023-03-26T16:27:32.138Z,91.60
2023-03-26T16:30:35.450Z,92.00
2023-03-26T16:33:40.482Z,91.90
2023-03-26T16:36:49.878Z,92.00
2023-03-26T16:39:53.495Z,92.40
2023-03-26T16:43:07.356Z,92.40
2023-03-26T16:46:21.472Z,92.30
2023-03-26T16:49:36.098Z,92.90
2023-03-26T16:52:48.563Z,93.10
2023-03-26T16:55:57.744Z,93.60
2023-03-26T16:59:07.481Z,93.60
2023-03-26T17:02:20.868Z,93.50
2023-03-26T17:05:34.257Z,93.60
2023-03-26T17:08:48.194Z,94.00
2023-03-26T17:12:01.746Z,93.60
2023-03-26T17:15:25.367Z,93.60
2023-03-26T17:18:37.108Z,93.70
2023-03-26T17:21:49.132Z,93.70
2023-03-26T17:24:59.489Z,93.60
2023-03-26T17:28:18.880Z,93.50
2023-03-26T17:31:28.260Z,93.50
2023-03-26T17:34:55.221Z,93.50
2023-03-26T17:37:58.505Z,93.30
2023-03-26T17:41:02.683Z,93.70
2023-03-26T17:44:41.790Z,94.10
2023-03-26T17:47:49.663Z,94.60
2023-03-26T17:50:57.612Z,95.30
2023-03-26T17:54:01.351Z,95.90
2023-03-26T17:57:11.593Z,96.80
2023-03-26T18:00:18.571Z,97.60
2023-03-26T18:03:24.832Z,99.30
2023-03-26T18:06:45.597Z,99.10
2023-03-26T18:10:04.908Z,98.50
2023-03-26T18:13:30.509Z,98.00
2023-03-26T18:16:39.821Z,98.00
2023-03-26T18:19:50.990Z,97.50
2023-03-26T18:22:54.466Z,97.60
2023-03-26T18:26:09.086Z,96.90
2023-03-26T18:29:21.528Z,96.60
2023-03-26T18:32:26.079Z,96.70
2023-03-26T18:35:40.988Z,96.50
2023-03-26T18:38:43.957Z,96.70
2023-03-26T18:41:47.734Z,96.70
2023-03-26T18:44:52.666Z,97.00
2023-03-26T18:47:58.547Z,97.40
2023-03-26T18:51:04.851Z,97.00
2023-03-26T18:54:10.242Z,97.10
2023-03-26T18:57:22.108Z,97.40
2023-03-26T19:00:30.264Z,97.50
2023-03-26T19:03:36.703Z,97.40
2023-03-26T19:06:41.967Z,97.30
2023-03-26T19:09:45.456Z,97.30
2023-03-26T19:12:55.977Z,97.80
2023-03-26T19:16:02.456Z,97.90
2023-03-26T19:19:07.898Z,97.80
2023-03-26T19:22:12.449Z,98.20
2023-03-26T19:25:22.356Z,98.40
2023-03-26T19:28:28.710Z,98.60
2023-03-26T19:31:36.624Z,98.30
2023-03-26T19:34:40.653Z,98.10
2023-03-26T19:37:51.229Z,98.40
2023-03-26T19:40:55.772Z,98.50
2023-03-26T19:44:01.945Z,98.50
2023-03-26T19:47:08.978Z,98.60
2023-03-26T19:50:24.787Z,98.50
2023-03-26T19:53:32.970Z,98.40
2023-03-26T19:56:35.918Z,98.30
2023-03-26T19:59:38.674Z,98.40
2023-03-26T20:02:45.119Z,98.30
2023-03-26T20:05:47.918Z,98.60
2023-03-26T20:08:51.990Z,98.50
2023-03-26T20:11:54.725Z,98.40
2023-03-26T20:14:57.778Z,98.30
2023-03-26T20:18:01.914Z,98.20
2023-03-26T20:21:10.665Z,98.50
2023-03-26T20:24:15.721Z,97.80
2023-03-26T20:27:19.072Z,98.00
2023-03-26T20:30:36.805Z,97.80
2023-03-26T20:33:42.323Z,97.60
2023-03-26T20:36:46.791Z,97.50
2023-03-26T20:39:50.008Z,97.00
2023-03-26T20:42:52.878Z,97.40
2023-03-26T20:45:57.593Z,97.00
2023-03-26T20:49:02.127Z,97.60
2023-03-26T20:52:05.245Z,97.90
2023-03-26T20:55:11.352Z,98.40
2023-03-26T20:58:15.573Z,97.80
2023-03-26T21:01:19.247Z,97.60
2023-03-26T21:04:24.912Z,97.50
2023-03-26T21:07:27.832Z,97.80
2023-03-26T21:10:31.475Z,97.70
2023-03-26T21:13:39.965Z,97.10
2023-03-26T21:16:43.371Z,96.70
2023-03-26T21:19:49.180Z,97.00
2023-03-26T21:23:00.110Z,96.60
2023-03-26T21:26:12.291Z,96.60
2023-03-26T21:29:15.610Z,96.60
2023-03-26T21:32:18.938Z,96.50
2023-03-26T21:35:23.969Z,96.20
2023-03-26T21:38:27.487Z,96.50
2023-03-26T21:41:36.040Z,96.30
2023-03-26T21:44:39.894Z,96.50
2023-03-26T21:47:44.045Z,96.20
2023-03-26T21:50:48.891Z,96.40
2023-03-26T21:53:52.359Z,96.30
2023-03-26T21:57:17.640Z,96.40
2023-03-26T22:00:27.994Z,96.40
2023-03-26T22:03:49.332Z,96.50
2023-03-26T22:06:58.344Z,96.60
2023-03-26T22:10:01.212Z,96.60
2023-03-26T22:13:04.177Z,96.70
2023-03-26T22:16:08.307Z,96.80
2023-03-26T22:19:12.510Z,96.60
2023-03-26T22:22:16.733Z,97.00
2023-03-26T22:25:20.755Z,97.10
2023-03-26T22:28:23.887Z,97.10
2023-03-26T22:31:27.283Z,96.80
2023-03-26T22:34:30.637Z,96.70
2023-03-26T22:37:35.599Z,96.80
2023-03-26T22:40:38.696Z,96.60
2023-03-26T22:43:41.552Z,96.90
2023-03-26T22:46:47.358Z,97.00
2023-03-26T22:49:51.290Z,97.10
2023-03-26T22:52:55.500Z,97.10
2023-03-26T22:55:58.964Z,96.80
2023-03-26T22:59:01.973Z,96.80
2023-03-26T23:02:04.914Z,96.50
2023-03-26T23:05:08.176Z,96.80
2023-03-26T23:08:12.624Z,96.90
2023-03-26T23:11:17.921Z,96.90
2023-03-26T23:14:21.789Z,96.70
2023-03-26T23:17:24.944Z,96.60
2023-03-26T23:20:27.820Z,96.70
2023-03-26T23:23:34.414Z,96.80
2023-03-26T23:26:49.509Z,97.10
2023-03-26T23:29:53.373Z,96.80
2023-03-26T23:32:58.185Z,96.80
2023-03-26T23:36:04.236Z,96.60
2023-03-26T23:39:11.810Z,96.80
2023-03-26T23:42:14.678Z,96.70
2023-03-26T23:45:17.765Z,96.70
2023-03-26T23:48:23.217Z,96.50
2023-03-26T23:51:26.473Z,96.30
2023-03-26T23:54:30.734Z,96.30
2023-03-26T23:57:33.789Z,96.60
